createdAt,value
2018-11-12T00:01:17.904Z,50.46
2018-11-12T00:03:45.482Z,49.93
2018-11-12T00:06:13.641Z,49.38
2018-11-12T00:08:41.132Z,49.60
2018-11-12T00:11:09.101Z,48.77
2018-11-12T00:13:38.162Z,49.06
2018-11-12T00:16:05.934Z,49.34
2018-11-12T00:18:33.477Z,49.35
2018-11-12T00:21:01.183Z,50.44
2018-11-12T00:23:29.318Z,50.13
2018-11-12T00:25:57.355Z,49.38
2018-11-12T00:28:24.912Z,50.44
2018-11-12T00:30:52.401Z,50.51
2018-11-12T00:33:19.870Z,51.95
2018-11-12T00:35:48.293Z,50.89
2018-11-12T00:38:17.649Z,50.31
2018-11-12T00:40:45.115Z,50.96
2018-11-12T00:43:12.652Z,50.93
2018-11-12T00:45:40.143Z,51.51
2018-11-12T00:48:07.964Z,50.86
2018-11-12T00:50:35.961Z,52.09
2018-11-12T00:53:03.437Z,51.86
2018-11-12T00:55:30.897Z,51.50
2018-11-12T00:57:58.512Z,51.39
2018-11-12T01:00:26.414Z,51.50
2018-11-12T01:02:54.904Z,50.87
2018-11-12T01:05:22.490Z,51.84
2018-11-12T01:07:49.938Z,50.75
2018-11-12T01:10:18.388Z,51.68
2018-11-12T01:12:48.194Z,51.85
2018-11-12T01:15:17.298Z,51.54
2018-11-12T01:17:44.980Z,51.86
2018-11-12T01:20:13.655Z,52.32
2018-11-12T01:22:41.231Z,51.98
2018-11-12T01:25:11.352Z,52.29
2018-11-12T01:27:40.126Z,51.87
2018-11-12T01:30:09.913Z,51.61
2018-11-12T01:32:37.598Z,51.76
2018-11-12T01:35:06.449Z,51.97
2018-11-12T01:37:34.665Z,52.08
2018-11-12T01:40:02.637Z,51.98
2018-11-12T01:42:30.153Z,51.80
2018-11-12T01:44:57.649Z,52.25
2018-11-12T01:47:25.109Z,52.28
2018-11-12T01:49:53.796Z,51.37
2018-11-12T01:52:22.697Z,51.14
2018-11-12T01:54:50.197Z,51.05
2018-11-12T01:57:17.626Z,51.15
2018-11-12T01:59:45.069Z,51.23
2018-11-12T02:02:13.031Z,51.74
2018-11-12T02:04:40.922Z,51.36
2018-11-12T02:07:08.399Z,51.43
2018-11-12T02:09:35.841Z,51.23
2018-11-12T02:12:04.673Z,51.84
2018-11-12T02:14:32.724Z,51.09
2018-11-12T02:17:01.565Z,50.96
2018-11-12T02:19:29.164Z,51.64
2018-11-12T02:21:56.595Z,51.75
2018-11-12T02:24:24.112Z,51.46
2018-11-12T02:26:52.225Z,54.71
2018-11-12T02:29:20.128Z,53.76
2018-11-12T02:31:47.528Z,53.40
2018-11-12T02:34:15.118Z,53.42
2018-11-12T02:36:42.557Z,52.87
2018-11-12T02:39:10.962Z,54.34
2018-11-12T02:41:40.270Z,53.82
2018-11-12T02:44:08.169Z,53.37
2018-11-12T02:46:36.388Z,53.18
2018-11-12T02:49:03.983Z,52.52
2018-11-12T02:51:31.897Z,53.29
2018-11-12T02:53:59.826Z,52.94
2018-11-12T02:56:27.958Z,53.85
2018-11-12T02:58:55.495Z,53.43
2018-11-12T03:01:23.068Z,53.40
2018-11-12T03:03:52.542Z,53.70
2018-11-12T03:06:23.565Z,53.31
2018-11-12T03:08:51.053Z,52.54
2018-11-12T03:11:18.610Z,52.39
2018-11-12T03:13:46.040Z,51.90
2018-11-12T03:16:14.237Z,52.10
2018-11-12T03:18:43.585Z,52.29
2018-11-12T03:21:11.217Z,53.00
2018-11-12T03:23:38.644Z,52.59
2018-11-12T03:26:06.230Z,53.01
2018-11-12T03:28:35.661Z,54.27
2018-11-12T03:31:03.735Z,53.98
2018-11-12T03:33:31.263Z,53.00
2018-11-12T03:35:58.771Z,53.30
2018-11-12T03:38:26.212Z,53.54
2018-11-12T03:40:54.237Z,53.14
2018-11-12T03:43:22.198Z,54.39
2018-11-12T03:45:49.651Z,54.33
2018-11-12T03:48:17.187Z,54.49
2018-11-12T03:50:44.611Z,53.87
2018-11-12T03:53:12.500Z,53.78
2018-11-12T03:55:41.450Z,53.04
2018-11-12T03:58:08.893Z,53.37
2018-11-12T04:00:36.321Z,53.34
2018-11-12T04:03:03.870Z,53.44
2018-11-12T04:05:31.881Z,53.00
2018-11-12T04:07:59.755Z,53.21
2018-11-12T04:10:27.274Z,54.06
2018-11-12T04:12:54.673Z,53.63
2018-11-12T04:15:24.193Z,53.44
2018-11-12T04:17:53.547Z,54.02
2018-11-12T04:20:23.779Z,54.69
2018-11-12T04:23:09.737Z,54.00
2018-11-12T04:25:39.136Z,54.22
2018-11-12T04:28:07.090Z,53.39
2018-11-12T04:30:35.585Z,53.81
2018-11-12T04:33:03.173Z,53.78
2018-11-12T04:35:30.705Z,53.67
2018-11-12T04:37:58.455Z,53.54
2018-11-12T04:40:26.464Z,53.61
2018-11-12T04:42:55.726Z,53.57
2018-11-12T04:45:24.562Z,53.88
2018-11-12T04:47:52.619Z,53.24
2018-11-12T04:50:21.484Z,53.64
2018-11-12T04:52:51.401Z,53.36
2018-11-12T04:55:20.554Z,52.95
2018-11-12T04:57:48.082Z,53.25
2018-11-12T05:00:17.903Z,53.31
2018-11-12T05:02:45.392Z,53.21
2018-11-12T05:05:15.444Z,53.66
2018-11-12T05:07:44.393Z,53.31
2018-11-12T05:10:12.946Z,53.41
2018-11-12T05:12:40.988Z,52.95
2018-11-12T05:15:10.905Z,52.79
2018-11-12T05:17:39.358Z,53.84
2018-11-12T05:20:09.911Z,53.71
2018-11-12T05:22:37.653Z,53.24
2018-11-12T05:25:05.146Z,52.87
2018-11-12T05:27:32.759Z,53.46
2018-11-12T05:30:00.745Z,52.95
2018-11-12T05:32:30.357Z,53.30
2018-11-12T05:34:57.818Z,53.97
2018-11-12T05:37:25.367Z,55.01
2018-11-12T05:39:52.825Z,53.71
2018-11-12T05:42:20.857Z,53.67
2018-11-12T05:44:48.860Z,54.54
2018-11-12T05:47:16.234Z,54.80
2018-11-12T05:49:43.649Z,55.11
2018-11-12T05:52:11.736Z,54.87
2018-11-12T05:54:39.625Z,55.08
2018-11-12T05:57:09.129Z,55.12
2018-11-12T05:59:36.585Z,55.11
2018-11-12T06:02:04.136Z,54.65
2018-11-12T06:04:31.581Z,54.52
2018-11-12T06:06:59.536Z,54.44
2018-11-12T06:09:27.573Z,53.70
2018-11-12T06:11:55.144Z,54.00
2018-11-12T06:14:22.621Z,53.29
2018-11-12T06:16:50.126Z,53.40
2018-11-12T06:19:18.136Z,53.95
2018-11-12T06:21:47.061Z,53.74
2018-11-12T06:24:15.545Z,54.19
2018-11-12T06:26:43.032Z,53.88
2018-11-12T06:29:10.576Z,54.12
2018-11-12T06:31:39.019Z,54.63
2018-11-12T06:34:07.396Z,54.53
2018-11-12T06:36:34.975Z,54.05
2018-11-12T06:39:02.602Z,53.77
2018-11-12T06:41:30.101Z,53.80
2018-11-12T06:43:59.265Z,53.57
2018-11-12T06:46:28.179Z,53.05
2018-11-12T06:48:55.755Z,53.13
2018-11-12T06:51:23.315Z,53.10
2018-11-12T06:53:50.790Z,53.48
2018-11-12T06:56:18.802Z,54.03
2018-11-12T06:58:46.792Z,54.59
2018-11-12T07:01:15.285Z,54.65
2018-11-12T07:03:42.733Z,54.32
2018-11-12T07:06:10.341Z,54.30
2018-11-12T07:08:38.149Z,54.82
2018-11-12T07:11:07.688Z,54.49
2018-11-12T07:13:35.238Z,54.76
2018-11-12T07:16:02.738Z,54.33
2018-11-12T07:18:30.333Z,54.91
2018-11-12T07:20:58.361Z,54.40
2018-11-12T07:23:26.980Z,54.00
2018-11-12T07:25:54.492Z,53.36
2018-11-12T07:28:22.106Z,53.00
2018-11-12T07:30:49.785Z,53.42
2018-11-12T07:33:17.788Z,53.03
2018-11-12T07:35:47.340Z,52.47
2018-11-12T07:38:14.868Z,52.93
2018-11-12T07:40:42.374Z,52.49
2018-11-12T07:43:10.062Z,52.24
2018-11-12T07:45:37.999Z,52.24
2018-11-12T07:48:06.030Z,52.38
2018-11-12T07:50:34.279Z,51.89
2018-11-12T07:53:01.753Z,52.04
2018-11-12T07:55:29.326Z,53.64
2018-11-12T07:57:58.236Z,53.07
2018-11-12T08:00:32.502Z,53.94
2018-11-12T08:03:06.377Z,53.58
2018-11-12T08:05:34.274Z,53.50
2018-11-12T08:08:02.275Z,53.26
2018-11-12T08:10:30.316Z,53.39
2018-11-12T08:12:57.774Z,52.79
2018-11-12T08:15:25.341Z,52.59
2018-11-12T08:17:53.162Z,52.48
2018-11-12T08:20:23.211Z,52.64
2018-11-12T08:22:52.097Z,53.10
2018-11-12T08:25:21.202Z,53.20
2018-11-12T08:27:49.185Z,53.57
2018-11-12T08:30:19.050Z,54.10
2018-11-12T08:32:48.237Z,55.29
2018-11-12T08:35:16.593Z,55.06
2018-11-12T08:37:45.153Z,56.26
2018-11-12T08:40:14.232Z,57.11
2018-11-12T08:42:41.970Z,55.18
2018-11-12T08:45:10.497Z,54.64
2018-11-12T08:47:40.484Z,57.73
2018-11-12T08:50:10.109Z,57.16
2018-11-12T08:52:38.101Z,56.54
2018-11-12T08:55:06.482Z,56.02
2018-11-12T08:57:34.347Z,55.84
2018-11-12T09:00:02.322Z,54.36
2018-11-12T09:02:30.830Z,53.21
2018-11-12T09:04:58.509Z,53.53
2018-11-12T09:07:25.941Z,52.44
2018-11-12T09:09:54.585Z,52.41
2018-11-12T09:12:23.794Z,51.99
2018-11-12T09:14:52.130Z,52.33
2018-11-12T09:17:19.737Z,52.17
2018-11-12T09:19:47.262Z,52.71
2018-11-12T09:22:15.093Z,52.26
2018-11-12T09:24:42.994Z,52.12
2018-11-12T09:27:10.560Z,53.35
2018-11-12T09:29:38.203Z,52.37
2018-11-12T09:32:06.415Z,52.77
2018-11-12T09:34:34.317Z,52.51
2018-11-12T09:37:03.531Z,51.92
2018-11-12T09:39:31.409Z,52.34
2018-11-12T09:41:58.910Z,51.96
2018-11-12T09:44:27.151Z,51.54
2018-11-12T09:46:56.325Z,51.09
2018-11-12T09:49:24.392Z,50.67
2018-11-12T09:51:51.885Z,50.96
2018-11-12T09:54:20.779Z,50.56
2018-11-12T09:56:48.154Z,51.08
2018-11-12T09:59:16.174Z,51.73
2018-11-12T10:01:45.258Z,51.64
2018-11-12T10:04:13.667Z,50.01
2018-11-12T10:06:41.868Z,50.06
2018-11-12T10:09:12.038Z,49.70
2018-11-12T10:11:40.307Z,48.44
2018-11-12T10:14:08.731Z,51.05
2018-11-12T10:16:38.290Z,49.69
2018-11-12T10:19:02.366Z,48.95
2018-11-12T10:21:30.953Z,48.08
2018-11-12T10:23:59.160Z,48.55
2018-11-12T10:26:28.847Z,48.85
2018-11-12T10:28:57.078Z,48.17
2018-11-12T10:31:25.048Z,47.84
2018-11-12T10:33:53.254Z,47.54
2018-11-12T10:36:20.757Z,48.11
2018-11-12T10:38:49.058Z,47.56
2018-11-12T10:41:17.631Z,47.11
2018-11-12T10:43:45.331Z,47.00
2018-11-12T10:46:12.981Z,45.87
2018-11-12T10:48:40.800Z,46.11
2018-11-12T10:51:10.364Z,46.36
2018-11-12T10:53:38.385Z,49.56
2018-11-12T10:56:05.918Z,48.97
2018-11-12T10:58:35.445Z,50.28
2018-11-12T11:03:16.721Z,49.76
2018-11-12T11:05:47.653Z,49.28
2018-11-12T11:08:15.674Z,49.15
2018-11-12T11:10:44.418Z,48.69
2018-11-12T11:13:12.087Z,48.82
2018-11-12T11:15:40.058Z,47.77
2018-11-12T11:18:09.642Z,49.35
2018-11-12T11:20:37.146Z,48.69
2018-11-12T11:23:04.930Z,46.75
2018-11-12T11:25:33.696Z,48.54
2018-11-12T11:28:01.403Z,47.64
2018-11-12T11:30:30.179Z,46.63
2018-11-12T11:32:57.793Z,48.29
2018-11-12T11:35:25.357Z,48.29
2018-11-12T11:37:52.899Z,48.14
2018-11-12T11:40:21.785Z,47.43
2018-11-12T11:42:51.650Z,46.24
2018-11-12T11:45:19.800Z,46.23
2018-11-12T11:47:48.429Z,45.45
2018-11-12T11:50:18.235Z,46.21
2018-11-12T11:52:45.634Z,46.57
2018-11-12T11:55:15.482Z,45.12
2018-11-12T11:57:43.419Z,46.15
2018-11-12T12:00:17.201Z,45.34
2018-11-12T12:02:45.582Z,44.47
2018-11-12T12:05:13.954Z,43.04
2018-11-12T12:07:43.301Z,43.13
2018-11-12T12:10:12.080Z,41.31
2018-11-12T12:12:40.978Z,42.53
2018-11-12T12:15:11.346Z,42.42
2018-11-12T12:17:39.931Z,42.03
2018-11-12T12:20:10.673Z,41.69
2018-11-12T12:22:38.351Z,41.01
2018-11-12T12:25:07.312Z,40.64
2018-11-12T12:27:35.034Z,41.60
2018-11-12T12:30:02.702Z,43.49
2018-11-12T12:32:31.598Z,42.86
2018-11-12T12:34:59.474Z,42.61
2018-11-12T12:37:28.324Z,44.03
2018-11-12T12:39:56.059Z,45.07
2018-11-12T12:42:23.681Z,45.63
2018-11-12T12:44:52.462Z,43.67
2018-11-12T12:47:19.897Z,45.09
2018-11-12T12:49:47.337Z,44.12
2018-11-12T12:52:15.086Z,44.54
2018-11-12T12:54:43.269Z,46.09
2018-11-12T12:57:12.226Z,45.61
2018-11-12T12:59:40.856Z,44.43
2018-11-12T13:02:08.396Z,44.15
2018-11-12T13:04:35.976Z,43.57
2018-11-12T13:07:03.638Z,42.33
2018-11-12T13:09:32.273Z,42.00
2018-11-12T13:12:01.262Z,41.43
2018-11-12T13:14:31.034Z,43.12
2018-11-12T13:16:58.661Z,42.65
2018-11-12T13:19:26.982Z,44.39
2018-11-12T13:21:58.169Z,49.44
2018-11-12T13:24:25.692Z,49.72
2018-11-12T13:26:53.329Z,50.00
2018-11-12T13:29:21.063Z,50.88
2018-11-12T13:31:48.689Z,53.31
2018-11-12T13:34:17.234Z,51.77
2018-11-12T13:36:44.762Z,50.70
2018-11-12T13:39:13.075Z,51.37
2018-11-12T13:41:40.703Z,51.50
2018-11-12T13:44:08.705Z,50.47
2018-11-12T13:46:44.608Z,51.04
2018-11-12T13:49:12.187Z,52.08
2018-11-12T13:51:40.037Z,51.29
2018-11-12T13:54:08.348Z,50.51
2018-11-12T13:56:36.111Z,51.11
2018-11-12T13:59:04.905Z,51.46
2018-11-12T14:01:32.473Z,52.06
2018-11-12T14:04:01.866Z,51.36
2018-11-12T14:06:29.489Z,50.45
2018-11-12T14:08:57.087Z,49.86
2018-11-12T14:11:26.663Z,49.85
2018-11-12T14:13:54.916Z,49.60
2018-11-12T14:16:22.877Z,49.27
2018-11-12T14:18:50.436Z,48.89
2018-11-12T14:21:18.261Z,49.17
2018-11-12T14:23:46.797Z,48.90
2018-11-12T14:26:14.523Z,49.01
2018-11-12T14:28:42.260Z,48.20
2018-11-12T14:31:09.666Z,49.03
2018-11-12T14:33:37.203Z,48.30
2018-11-12T14:36:07.019Z,48.35
2018-11-12T14:38:34.520Z,48.16
2018-11-12T14:41:02.269Z,48.04
2018-11-12T14:43:29.907Z,47.94
2018-11-12T14:45:58.250Z,48.12
2018-11-12T14:48:26.993Z,48.17
2018-11-12T14:50:54.612Z,48.46
2018-11-12T14:53:22.201Z,48.25
2018-11-12T14:55:49.731Z,47.28
2018-11-12T14:58:17.343Z,48.09
2018-11-12T15:00:46.634Z,48.02
2018-11-12T15:03:14.470Z,47.75
2018-11-12T15:05:42.109Z,47.24
2018-11-12T15:08:09.612Z,48.02
2018-11-12T15:10:38.271Z,48.01
2018-11-12T15:13:06.738Z,47.79
2018-11-12T15:15:34.383Z,47.44
2018-11-12T15:18:02.727Z,48.50
2018-11-12T15:20:30.316Z,47.92
2018-11-12T15:22:57.927Z,48.05
2018-11-12T15:25:27.888Z,48.01
2018-11-12T15:27:55.485Z,48.75
2018-11-12T15:30:24.194Z,48.39
2018-11-12T15:32:53.110Z,48.57
2018-11-12T15:35:20.622Z,49.14
2018-11-12T15:37:49.618Z,48.41
2018-11-12T15:40:17.362Z,48.69
2018-11-12T15:42:44.998Z,48.75
2018-11-12T15:45:15.075Z,49.05
2018-11-12T15:47:43.782Z,48.21
2018-11-12T15:50:15.762Z,48.42
2018-11-12T15:52:44.038Z,48.65
2018-11-12T15:55:11.531Z,48.66
2018-11-12T15:57:39.403Z,48.25
2018-11-12T16:00:09.564Z,48.72
2018-11-12T16:02:38.075Z,48.95
2018-11-12T16:05:06.230Z,48.86
2018-11-12T16:07:34.022Z,49.07
2018-11-12T16:11:31.057Z,48.27
2018-11-12T16:14:00.790Z,48.93
2018-11-12T16:16:28.388Z,48.51
2018-11-12T16:18:55.910Z,48.30
2018-11-12T16:21:23.466Z,47.91
2018-11-12T16:23:51.743Z,47.99
2018-11-12T16:26:20.415Z,48.38
2018-11-12T16:28:48.082Z,47.26
2018-11-12T16:31:15.666Z,47.66
2018-11-12T16:33:43.283Z,47.51
2018-11-12T16:36:11.347Z,47.19
2018-11-12T16:38:40.510Z,47.48
2018-11-12T16:41:08.166Z,47.53
2018-11-12T16:43:35.683Z,47.70
2018-11-12T16:46:03.288Z,47.97
2018-11-12T16:48:30.862Z,47.72
2018-11-12T16:51:01.117Z,49.21
2018-11-12T16:53:28.870Z,48.88
2018-11-12T16:55:56.857Z,48.35
2018-11-12T16:58:24.574Z,48.44
2018-11-12T17:00:52.566Z,48.15
2018-11-12T17:03:22.153Z,48.94
2018-11-12T17:05:49.910Z,47.89
2018-11-12T17:08:18.883Z,48.50
2018-11-12T17:10:46.594Z,47.80
2018-11-12T17:13:15.285Z,48.04
2018-11-12T17:15:44.562Z,48.46
2018-11-12T17:18:12.183Z,47.93
2018-11-12T17:20:39.930Z,48.19
2018-11-12T17:23:07.542Z,47.67
2018-11-12T17:25:36.142Z,47.67
2018-11-12T17:28:05.153Z,47.89
2018-11-12T17:30:32.796Z,47.62
2018-11-12T17:33:08.842Z,47.43
2018-11-12T17:38:13.981Z,47.51
2018-11-12T17:40:41.541Z,47.92
2018-11-12T17:43:09.136Z,46.99
2018-11-12T17:45:47.751Z,46.79
2018-11-12T17:48:16.962Z,47.36
2018-11-12T17:50:44.485Z,47.95
2018-11-12T17:53:12.343Z,47.67
2018-11-12T17:55:40.061Z,48.22
2018-11-12T17:58:07.665Z,47.74
2018-11-12T18:00:37.390Z,48.23
2018-11-12T18:03:07.263Z,47.68
2018-11-12T18:05:34.875Z,47.57
2018-11-12T18:08:02.633Z,47.76
2018-11-12T18:10:30.295Z,47.61
2018-11-12T18:12:59.464Z,47.57
2018-11-12T18:15:27.700Z,47.75
2018-11-12T18:17:55.266Z,47.26
2018-11-12T18:20:25.255Z,47.01
2018-11-12T18:22:53.499Z,47.54
2018-11-12T18:25:21.961Z,47.50
2018-11-12T18:27:50.153Z,47.43
2018-11-12T18:30:21.320Z,46.81
2018-11-12T18:32:49.925Z,47.20
2018-11-12T18:35:17.520Z,46.71
2018-11-12T18:37:47.612Z,47.08
2018-11-12T18:40:16.506Z,46.84
2018-11-12T18:42:44.286Z,47.51
2018-11-12T18:45:14.082Z,47.15
2018-11-12T18:47:41.983Z,46.96
2018-11-12T18:50:15.115Z,46.99
2018-11-12T18:52:42.968Z,46.67
2018-11-12T18:55:11.732Z,46.99
2018-11-12T18:57:39.899Z,46.88
2018-11-12T19:00:12.838Z,46.44
2018-11-12T19:02:40.834Z,46.33
2018-11-12T19:05:14.458Z,46.95
2018-11-12T19:07:42.606Z,47.00
2018-11-12T19:10:13.626Z,47.08
2018-11-12T19:12:56.236Z,46.77
2018-11-12T19:15:29.049Z,46.48
2018-11-12T19:18:00.605Z,47.61
2018-11-12T19:20:28.139Z,46.82
2018-11-12T19:22:56.544Z,46.56
2018-11-12T19:25:24.281Z,46.76
2018-11-12T19:27:51.842Z,46.67
2018-11-12T19:30:20.974Z,46.98
2018-11-12T19:32:48.525Z,46.92
2018-11-12T19:35:20.369Z,46.04
2018-11-12T19:37:47.818Z,46.08
2018-11-12T19:40:35.695Z,46.57
2018-11-12T19:43:03.124Z,46.64
2018-11-12T19:45:31.554Z,47.00
2018-11-12T19:47:59.124Z,46.41
2018-11-12T19:50:27.846Z,46.19
2018-11-12T19:54:24.943Z,46.98
2018-11-12T19:56:54.933Z,47.09
2018-11-12T19:59:22.418Z,47.37
2018-11-12T20:01:50.040Z,47.95
2018-11-12T20:04:17.502Z,47.65
2018-11-12T20:06:45.024Z,47.12
2018-11-12T20:09:14.832Z,47.01
2018-11-12T20:11:42.341Z,46.74
2018-11-12T20:14:09.953Z,46.72
2018-11-12T20:16:37.538Z,46.37
2018-11-12T20:19:05.226Z,46.15
2018-11-12T20:21:34.112Z,46.25
2018-11-12T20:24:01.660Z,46.71
2018-11-12T20:26:29.121Z,45.92
2018-11-12T20:28:56.598Z,46.41
2018-11-12T20:31:25.040Z,47.05
2018-11-12T20:33:53.560Z,47.33
2018-11-12T20:36:21.082Z,47.35
2018-11-12T20:38:48.718Z,47.60
2018-11-12T20:41:16.220Z,47.30
2018-11-12T20:43:43.680Z,47.35
2018-11-12T20:46:13.311Z,47.39
2018-11-12T20:48:40.849Z,47.30
2018-11-12T20:51:08.405Z,47.03
2018-11-12T20:53:36.101Z,47.20
2018-11-12T20:56:03.862Z,47.17
2018-11-12T20:58:32.540Z,46.79
2018-11-12T21:01:00.026Z,47.07
2018-11-12T21:03:27.573Z,46.74
2018-11-12T21:05:55.104Z,47.10
2018-11-12T21:08:22.696Z,47.24
2018-11-12T21:10:51.972Z,46.53
2018-11-12T21:13:19.422Z,46.12
2018-11-12T21:15:47.030Z,46.27
2018-11-12T21:18:14.562Z,46.82
2018-11-12T21:20:42.085Z,46.67
2018-11-12T21:23:10.593Z,46.84
2018-11-12T21:25:38.117Z,46.26
2018-11-12T21:28:05.708Z,46.47
2018-11-12T21:30:33.371Z,46.94
2018-11-12T21:33:00.896Z,47.72
2018-11-12T21:35:30.802Z,47.66
2018-11-12T21:37:59.148Z,47.12
2018-11-12T21:40:27.714Z,47.32
2018-11-12T21:42:55.270Z,47.27
2018-11-12T21:45:24.305Z,46.80
2018-11-12T21:47:52.809Z,46.71
2018-11-12T21:50:21.134Z,46.42
2018-11-12T21:52:48.668Z,47.32
2018-11-12T21:55:16.195Z,47.57
2018-11-12T21:57:44.227Z,47.86
2018-11-12T22:00:17.269Z,48.20
2018-11-12T22:02:46.022Z,47.62
2018-11-12T22:05:14.085Z,47.55
2018-11-12T22:07:41.600Z,47.42
2018-11-12T22:10:10.935Z,47.06
2018-11-12T22:12:39.953Z,46.92
2018-11-12T22:15:07.845Z,47.47
2018-11-12T22:17:35.395Z,47.64
2018-11-12T22:20:03.046Z,47.74
2018-11-12T22:22:30.506Z,47.37
2018-11-12T22:24:59.372Z,46.71
2018-11-12T22:27:26.924Z,46.73
2018-11-12T22:29:54.393Z,46.64
2018-11-12T22:32:21.973Z,46.67
2018-11-12T22:34:49.621Z,46.42
2018-11-12T22:37:18.085Z,46.47
2018-11-12T22:39:45.600Z,47.17
2018-11-12T22:42:13.025Z,47.51
2018-11-12T22:44:40.578Z,47.29
2018-11-12T22:47:08.094Z,47.31
2018-11-12T22:49:39.225Z,46.87
2018-11-12T22:52:06.784Z,46.26
2018-11-12T22:54:34.287Z,45.93
2018-11-12T22:57:01.827Z,46.41
2018-11-12T22:59:29.430Z,46.64
2018-11-12T23:01:58.053Z,46.54
2018-11-12T23:04:25.630Z,47.23
2018-11-12T23:06:53.194Z,46.93
2018-11-12T23:09:20.739Z,46.03
2018-11-12T23:11:48.318Z,46.07
2018-11-12T23:14:17.303Z,45.88
2018-11-12T23:16:44.810Z,46.58
2018-11-12T23:19:12.318Z,47.02
2018-11-12T23:21:41.106Z,47.02
2018-11-12T23:24:08.605Z,46.86
2018-11-12T23:26:37.613Z,46.64
2018-11-12T23:29:05.431Z,47.04
2018-11-12T23:31:32.946Z,48.05
2018-11-12T23:34:00.552Z,48.16
2018-11-12T23:36:28.137Z,47.51
2018-11-12T23:38:57.301Z,47.10
2018-11-12T23:41:25.137Z,47.30
2018-11-12T23:43:52.697Z,47.01
2018-11-12T23:46:20.259Z,47.18
2018-11-12T23:48:48.022Z,47.26
2018-11-12T23:51:16.672Z,47.30
2018-11-12T23:53:44.172Z,47.67
2018-11-12T23:56:11.701Z,47.01
2018-11-12T23:58:40.465Z,46.79
